Time;durP1;ratioP1;P1;durP2;ratioP2;P2;SDS_P1;SDS_P2;PMS_P1;PMS_P2;Temp;Humidity;BMP_temperature;BMP_pressure;BME280_temperature;BME280_humidity;BME280_pressure;Samples;Min_cycle;Max_cycle;Signal;HPM_P1;HPM_P2
2020/12/12 00:01:34;;;;;;;27.35;15.00;;;;;;;5.34;93.70;99202.14;1704516;81;27115;-79
2020/12/12 00:03:59;;;;;;;25.85;15.48;;;;;;;5.33;93.86;99207.06;1701238;82;24423;-78
2020/12/12 00:06:25;;;;;;;26.27;15.35;;;;;;;5.27;94.12;99206.34;1695278;82;28483;-79
2020/12/12 00:08:51;;;;;;;27.67;15.43;;;;;;;5.25;94.27;99204.36;1688206;81;26962;-79
2020/12/12 00:11:19;;;;;;;27.22;15.32;;;;;;;5.26;94.49;99207.30;1706235;82;22023;-76
2020/12/12 00:13:45;;;;;;;33.48;15.50;;;;;;;5.23;94.71;99203.66;1707948;81;21226;-79
2020/12/12 00:16:11;;;;;;;29.10;16.47;;;;;;;5.23;94.89;99202.35;1712774;81;23831;-79
2020/12/12 00:18:37;;;;;;;28.15;16.02;;;;;;;5.28;94.73;99203.22;1693058;81;28429;-81
2020/12/12 00:21:03;;;;;;;28.57;16.50;;;;;;;5.26;94.79;99203.37;1684943;82;21783;-77
2020/12/12 00:23:28;;;;;;;27.48;15.83;;;;;;;5.25;94.95;99197.81;1683049;82;22203;-80
2020/12/12 00:25:54;;;;;;;29.70;15.60;;;;;;;5.21;95.18;99204.30;1707055;82;27051;-77
2020/12/12 00:28:20;;;;;;;25.15;14.98;;;;;;;5.21;95.18;99201.68;1695168;82;24146;-80
2020/12/12 00:30:46;;;;;;;28.27;15.40;;;;;;;5.21;95.50;99196.45;1703596;82;28859;-80
2020/12/12 00:33:11;;;;;;;27.00;16.00;;;;;;;5.18;95.42;99191.50;1697525;82;27487;-77
2020/12/12 00:35:37;;;;;;;29.77;16.15;;;;;;;5.18;95.61;99195.42;1699073;81;21927;-76
2020/12/12 00:38:03;;;;;;;28.57;15.90;;;;;;;5.17;95.70;99197.69;1699717;81;27107;-81
2020/12/12 00:40:29;;;;;;;28.67;16.37;;;;;;;5.18;95.68;99198.05;1694358;82;24785;-78
2020/12/12 00:42:54;;;;;;;28.47;15.35;;;;;;;5.21;95.58;99193.83;1716402;82;28375;-80
2020/12/12 00:45:20;;;;;;;27.10;15.78;;;;;;;5.16;95.68;99189.52;1719315;81;26787;-78
2020/12/12 00:47:46;;;;;;;28.27;15.30;;;;;;;5.20;95.60;99189.09;1692473;82;21881;-78
2020/12/12 00:50:11;;;;;;;26.93;14.80;;;;;;;5.25;95.66;99192.58;1705118;81;26257;-80
2020/12/12 00:52:37;;;;;;;25.25;14.03;;;;;;;5.29;95.64;99193.91;1713284;82;25224;-79
2020/12/12 00:55:03;;;;;;;24.02;13.93;;;;;;;5.39;95.67;99184.23;1704411;82;28845;-79
2020/12/12 00:57:29;;;;;;;26.00;13.85;;;;;;;5.49;95.30;99185.97;1696787;82;21709;-80
2020/12/12 00:59:55;;;;;;;25.37;14.07;;;;;;;5.53;94.80;99180.75;1694619;82;22255;-78
2020/12/12 01:02:21;;;;;;;24.70;13.70;;;;;;;5.50;94.58;99184.97;1717784;82;26514;-78
2020/12/12 01:04:46;;;;;;;22.42;13.03;;;;;;;5.51;94.39;99187.94;1702233;82;25415;-78
2020/12/12 01:07:12;;;;;;;19.55;12.43;;;;;;;5.49;94.46;99185.97;1695752;81;29006;-78
2020/12/12 01:09:38;;;;;;;22.95;12.25;;;;;;;5.38;94.54;99185.19;1690119;81;27422;-80
2020/12/12 01:12:04;;;;;;;21.30;12.33;;;;;;;5.40;94.66;99182.42;1702117;82;22435;-78
2020/12/12 01:14:29;;;;;;;21.15;12.05;;;;;;;5.34;94.76;99185.13;1698472;82;27427;-79
2020/12/12 01:17:00;;;;;;;20.60;12.37;;;;;;;5.33;95.02;99186.58;1699409;81;23717;-78
2020/12/12 01:19:25;;;;;;;22.05;12.98;;;;;;;5.30;95.01;99190.34;1700184;82;21201;-78
2020/12/12 01:21:54;;;;;;;20.52;12.45;;;;;;;5.26;95.35;99191.59;1705613;82;26915;-79
2020/12/12 01:24:20;;;;;;;19.80;11.95;;;;;;;5.28;95.34;99188.83;1696338;81;21433;-78
2020/12/12 01:26:47;;;;;;;19.90;12.18;;;;;;;5.23;95.38;99184.03;1688107;81;21632;-79
2020/12/12 01:29:13;;;;;;;23.15;12.93;;;;;;;5.15;95.66;99182.14;1715268;82;21191;-78
2020/12/12 01:31:39;;;;;;;21.20;12.43;;;;;;;5.17;95.49;99179.38;1704520;81;21287;-78
2020/12/12 01:34:05;;;;;;;20.30;12.78;;;;;;;5.13;95.73;99178.03;1703915;81;26740;-78
2020/12/12 01:36:31;;;;;;;21.37;13.72;;;;;;;5.08;95.89;99177.63;1692974;82;21340;-77
2020/12/12 01:38:56;;;;;;;22.62;13.55;;;;;;;5.12;95.77;99186.84;1698295;82;27047;-79
2020/12/12 01:41:22;;;;;;;21.33;13.32;;;;;;;5.08;95.85;99179.78;1697471;82;24883;-79
2020/12/12 01:43:51;;;;;;;22.20;13.45;;;;;;;5.03;95.83;99184.59;1710608;82;28411;-77
2020/12/12 01:46:26;;;;;;;22.75;13.60;;;;;;;4.99;95.92;99180.64;1700970;82;21276;-77
2020/12/12 01:48:53;;;;;;;23.98;14.47;;;;;;;4.94;96.06;99182.38;1697972;82;22187;-77
2020/12/12 01:51:25;;;;;;;23.55;13.62;;;;;;;4.91;96.24;99183.98;1703528;82;21201;-77
2020/12/12 01:53:54;;;;;;;23.27;13.53;;;;;;;4.92;96.18;99181.68;1693888;82;21188;-78
2020/12/12 01:56:20;;;;;;;24.82;14.03;;;;;;;4.88;96.26;99184.73;1688615;81;21188;-78
2020/12/12 01:58:45;;;;;;;23.35;14.33;;;;;;;4.93;96.10;99179.41;1702268;82;26887;-80
2020/12/12 02:01:12;;;;;;;22.85;14.43;;;;;;;4.91;96.03;99181.36;1706533;82;21808;-79
2020/12/12 02:03:42;;;;;;;25.45;15.20;;;;;;;4.91;96.04;99180.05;1692837;82;21620;-75
2020/12/12 02:06:12;;;;;;;23.75;14.38;;;;;;;4.86;96.01;99183.56;1693488;82;21609;-78
2020/12/12 02:08:37;;;;;;;28.25;15.60;;;;;;;4.89;95.96;99179.35;1672298;83;21211;-77
2020/12/12 02:11:03;;;;;;;27.10;15.60;;;;;;;4.88;95.90;99181.65;1696520;81;27024;-77
2020/12/12 02:13:29;;;;;;;28.17;16.10;;;;;;;4.85;95.81;99175.39;1695114;81;21262;-76
2020/12/12 02:15:55;;;;;;;25.50;15.28;;;;;;;4.93;95.94;99179.41;1698197;82;27165;-77
2020/12/12 02:18:23;;;;;;;24.87;15.10;;;;;;;5.02;95.66;99185.09;1702685;82;23640;-77
2020/12/12 02:21:00;;;;;;;27.70;15.80;;;;;;;5.02;95.00;99190.33;1677695;82;21545;-77
2020/12/12 02:23:26;;;;;;;29.05;16.95;;;;;;;4.94;95.04;99185.00;1695129;82;21584;-77
2020/12/12 02:25:52;;;;;;;28.95;17.45;;;;;;;4.93;95.22;99182.53;1703814;82;22013;-77
2020/12/12 02:28:25;;;;;;;28.57;16.75;;;;;;;4.89;95.28;99176.73;1700938;82;21176;-77
2020/12/12 02:30:49;;;;;;;29.55;17.00;;;;;;;4.93;95.20;99187.27;1685532;82;22302;-78
2020/12/12 02:33:15;;;;;;;30.40;17.62;;;;;;;4.87;95.43;99181.80;1684407;82;28546;-78
2020/12/12 02:35:40;;;;;;;33.23;18.80;;;;;;;4.83;95.35;99183.84;1697531;82;21207;-76
2020/12/12 02:38:06;;;;;;;36.13;19.55;;;;;;;4.70;95.80;99180.75;1704306;82;21255;-75
2020/12/12 02:40:32;;;;;;;35.33;19.93;;;;;;;4.76;95.80;99185.41;1675946;82;25382;-77
2020/12/12 02:42:57;;;;;;;37.20;20.02;;;;;;;4.80;95.57;99178.91;1694025;81;23718;-78
2020/12/12 02:45:23;;;;;;;38.05;20.37;;;;;;;4.73;95.82;99181.77;1700030;81;28408;-79
2020/12/12 02:47:49;;;;;;;38.67;21.33;;;;;;;4.75;95.57;99177.20;1702381;82;26604;-77
2020/12/12 02:50:15;;;;;;;40.00;21.42;;;;;;;4.75;95.58;99177.20;1685254;82;22088;-76
2020/12/12 02:52:42;;;;;;;41.25;21.57;;;;;;;4.74;95.58;99187.31;1706643;82;26764;-76
2020/12/12 02:55:10;;;;;;;44.23;23.07;;;;;;;4.70;95.63;99177.64;1701844;81;21231;-77
2020/12/12 02:57:36;;;;;;;41.05;21.45;;;;;;;4.70;95.90;99180.75;1706184;82;21280;-76
2020/12/12 03:00:08;;;;;;;42.03;22.35;;;;;;;4.71;95.92;99177.14;1702111;82;21209;-77
2020/12/12 03:02:34;;;;;;;37.75;21.85;;;;;;;4.62;95.87;99174.42;1683802;83;21191;-77
2020/12/12 03:05:00;;;;;;;40.12;22.07;;;;;;;4.63;95.94;99185.23;1705662;81;27257;-77
2020/12/12 03:07:26;;;;;;;42.83;22.47;;;;;;;4.65;95.76;99181.98;1698789;82;25088;-77
2020/12/12 03:09:51;;;;;;;39.38;21.20;;;;;;;4.59;95.98;99181.24;1695842;82;28589;-76
2020/12/12 03:12:17;;;;;;;39.95;22.42;;;;;;;4.62;95.94;99184.06;1703183;82;26941;-77
2020/12/12 03:14:43;;;;;;;38.30;22.07;;;;;;;4.60;95.91;99177.67;1701626;82;21458;-76
2020/12/12 03:17:09;;;;;;;38.90;20.75;;;;;;;4.60;95.84;99180.28;1702431;82;26595;-78
2020/12/12 03:19:38;;;;;;;39.30;21.02;;;;;;;4.63;95.76;99185.23;1704368;81;21096;-76
2020/12/12 03:22:05;;;;;;;39.50;21.57;;;;;;;4.60;95.66;99185.52;1687355;82;21212;-78
2020/12/12 03:24:32;;;;;;;38.15;19.25;;;;;;;4.51;95.76;99188.98;1713441;82;21168;-78
2020/12/12 03:26:57;;;;;;;38.02;21.33;;;;;;;4.54;95.75;99193.92;1688012;82;22149;-77
2020/12/12 03:29:23;;;;;;;34.60;20.63;;;;;;;4.63;95.75;99187.00;1709065;82;25996;-76
2020/12/12 03:31:49;;;;;;;34.37;20.57;;;;;;;4.73;95.23;99181.77;1697849;82;24726;-78
2020/12/12 03:34:14;;;;;;;36.60;20.12;;;;;;;4.86;94.98;99184.87;1701405;82;28427;-76
2020/12/12 03:36:40;;;;;;;33.80;19.70;;;;;;;4.85;94.22;99187.17;1695418;82;26873;-77
2020/12/12 03:39:06;;;;;;;31.40;17.87;;;;;;;4.90;93.99;99195.40;1693275;81;22506;-77
2020/12/12 03:41:32;;;;;;;34.33;18.47;;;;;;;4.82;93.71;99199.22;1698880;82;26505;-76
2020/12/12 03:43:57;;;;;;;33.03;19.10;;;;;;;4.78;94.08;99190.81;1705395;81;25335;-77
2020/12/12 03:46:23;;;;;;;33.35;18.30;;;;;;;4.80;94.09;99190.67;1704278;82;28425;-76
2020/12/12 03:48:49;;;;;;;31.73;18.75;;;;;;;4.82;93.88;99195.30;1696054;81;26816;-76
2020/12/12 03:51:15;;;;;;;31.77;18.62;;;;;;;4.82;93.71;99197.91;1696535;82;21337;-78
2020/12/12 03:53:41;;;;;;;34.48;18.57;;;;;;;4.82;93.62;99193.99;1687824;82;26695;-77
2020/12/12 03:56:07;;;;;;;30.40;17.93;;;;;;;4.79;93.58;99194.27;1691767;82;25347;-76
2020/12/12 03:58:32;;;;;;;29.98;17.67;;;;;;;4.74;93.61;99199.09;1702624;82;28618;-76
2020/12/12 04:00:58;;;;;;;28.52;17.62;;;;;;;4.65;93.78;99198.98;1708234;81;27538;-77
2020/12/12 04:03:24;;;;;;;34.40;18.32;;;;;;;4.61;94.06;99191.06;1706811;82;21923;-77
2020/12/12 04:05:49;;;;;;;29.15;17.32;;;;;;;4.61;93.87;99195.48;1703173;82;26296;-77
2020/12/12 04:08:15;;;;;;;30.13;17.37;;;;;;;4.63;93.86;99200.92;1694317;82;23835;-77
2020/12/12 04:10:41;;;;;;;34.27;18.35;;;;;;;4.56;94.03;99196.40;1709741;82;28456;-76
2020/12/12 04:13:07;;;;;;;33.73;18.82;;;;;;;4.61;93.79;99200.72;1707870;82;26769;-76
2020/12/12 04:15:33;;;;;;;31.68;18.42;;;;;;;4.65;93.63;99206.83;1701589;82;21960;-76
2020/12/12 04:17:58;;;;;;;33.77;18.67;;;;;;;4.62;93.72;99203.19;1702019;82;25531;-77
2020/12/12 04:20:24;;;;;;;35.03;20.30;;;;;;;4.54;93.79;99207.00;1689617;81;24771;-77
2020/12/12 04:22:50;;;;;;;38.38;20.95;;;;;;;4.53;93.75;99212.36;1685413;82;28420;-79
2020/12/12 04:25:15;;;;;;;40.28;20.90;;;;;;;4.38;94.15;99204.12;1694107;81;26939;-76
2020/12/12 04:27:42;;;;;;;39.03;21.27;;;;;;;4.39;94.14;99201.86;1677490;83;21898;-78
2020/12/12 04:30:08;;;;;;;41.40;20.77;;;;;;;4.34;94.00;99211.92;1696568;81;21164;-76
2020/12/12 04:32:34;;;;;;;39.27;21.50;;;;;;;4.37;94.08;99210.33;1698719;81;24745;-79
2020/12/12 04:35:00;;;;;;;43.68;20.50;;;;;;;4.34;93.87;99217.14;1706061;82;21294;-79
2020/12/12 04:37:28;;;;;;;39.60;21.07;;;;;;;4.24;94.12;99210.14;1711507;82;27034;-78
2020/12/12 04:39:54;;;;;;;39.70;20.88;;;;;;;4.27;94.14;99208.55;1708401;82;21248;-78
2020/12/12 04:42:20;;;;;;;40.80;21.50;;;;;;;4.19;94.09;99209.70;1700178;82;25379;-78
2020/12/12 04:44:46;;;;;;;41.97;21.80;;;;;;;4.18;94.11;99208.54;1700022;81;22487;-77
2020/12/12 04:47:12;;;;;;;41.20;22.55;;;;;;;4.18;94.41;99214.61;1691749;81;28965;-78
2020/12/12 04:49:38;;;;;;;44.08;22.45;;;;;;;4.34;94.09;99222.38;1702299;82;21538;-77
2020/12/12 04:52:04;;;;;;;49.23;24.47;;;;;;;4.34;93.67;99223.68;1701565;82;21340;-77
2020/12/12 04:54:33;;;;;;;47.05;22.65;;;;;;;4.38;93.41;99225.03;1700545;81;21279;-78
2020/12/12 04:57:04;;;;;;;43.05;23.15;;;;;;;4.39;93.03;99225.39;1704262;81;21112;-79
2020/12/12 04:59:31;;;;;;;38.98;21.33;;;;;;;4.38;92.94;99235.48;1704598;81;21671;-79
2020/12/12 05:01:58;;;;;;;49.63;23.50;;;;;;;4.41;92.75;99235.21;1705273;81;21442;-78
2020/12/12 05:04:24;;;;;;;44.58;21.77;;;;;;;4.27;92.92;99230.77;1688696;82;21232;-79
2020/12/12 05:06:50;;;;;;;46.92;20.97;;;;;;;4.25;93.16;99237.90;1697934;81;26439;-79
2020/12/12 05:09:16;;;;;;;45.50;22.10;;;;;;;4.20;93.10;99234.07;1708182;82;25855;-79
2020/12/12 05:11:45;;;;;;;44.58;22.22;;;;;;;4.12;92.92;99236.06;1708037;82;28491;-79
2020/12/12 05:14:11;;;;;;;44.50;21.15;;;;;;;4.11;93.11;99228.69;1694910;82;21205;-78
2020/12/12 05:16:36;;;;;;;48.17;22.73;;;;;;;4.17;92.94;99231.73;1690887;81;22103;-80
2020/12/12 05:19:05;;;;;;;40.80;20.87;;;;;;;4.15;92.80;99230.56;1702052;81;25579;-80
2020/12/12 05:21:31;;;;;;;42.30;21.62;;;;;;;4.14;92.81;99231.02;1702559;82;21460;-78
2020/12/12 05:23:59;;;;;;;47.30;21.87;;;;;;;4.11;92.74;99237.02;1689464;82;21192;-80
2020/12/12 05:26:29;;;;;;;46.77;21.52;;;;;;;4.16;92.62;99235.30;1677584;82;21220;-79
2020/12/12 05:29:00;;;;;;;40.05;20.52;;;;;;;4.11;92.83;99235.70;1698190;82;21681;-77
2020/12/12 05:31:27;;;;;;;43.25;21.85;;;;;;;3.94;92.75;99239.33;1700040;82;21207;-78
2020/12/12 05:33:53;;;;;;;44.20;21.20;;;;;;;3.85;93.01;99234.92;1690908;81;21212;-76
2020/12/12 05:36:27;;;;;;;44.15;22.10;;;;;;;3.84;93.05;99233.29;1702767;82;28473;-77
2020/12/12 05:38:58;;;;;;;41.85;20.72;;;;;;;3.86;92.95;99240.98;1702599;82;21161;-76
2020/12/12 05:41:27;;;;;;;42.75;21.73;;;;;;;3.81;93.21;99233.56;1693304;82;21274;-79
2020/12/12 05:43:53;;;;;;;41.88;19.62;;;;;;;3.75;93.29;99238.02;1707819;82;21196;-79
2020/12/12 05:46:22;;;;;;;42.70;20.68;;;;;;;3.69;93.34;99243.77;1709569;81;25717;-79
2020/12/12 05:48:48;;;;;;;46.45;21.65;;;;;;;3.70;93.51;99244.95;1682778;81;21206;-78
2020/12/12 05:51:14;;;;;;;44.77;22.50;;;;;;;3.72;93.34;99242.20;1698765;81;26975;-79
2020/12/12 05:53:43;;;;;;;45.08;21.50;;;;;;;3.61;93.72;99244.45;1699627;82;21360;-79
2020/12/12 05:56:08;;;;;;;;;;;;;;;3.63;93.64;99237.78;1711521;82;21208;-79
2020/12/12 05:58:34;;;;;;;46.88;20.55;;;;;;;3.59;93.69;99240.66;1701344;82;20216;-77
2020/12/12 06:01:00;;;;;;;42.83;20.50;;;;;;;3.54;93.87;99237.64;1699996;82;21703;-79
2020/12/12 06:03:32;;;;;;;42.80;22.15;;;;;;;3.51;94.05;99247.04;1704272;81;26574;-79
2020/12/12 06:06:05;;;;;;;46.05;22.48;;;;;;;3.56;93.97;99235.70;1697212;82;21215;-78
2020/12/12 06:08:37;;;;;;;46.75;22.85;;;;;;;3.60;93.85;99245.39;1689030;81;21204;-78
2020/12/12 06:11:08;;;;;;;45.90;21.93;;;;;;;3.62;93.63;99243.95;1690901;82;21172;-78
2020/12/12 06:13:36;;;;;;;45.85;21.93;;;;;;;3.64;93.23;99247.28;1694352;81;21143;-78
2020/12/12 06:16:05;;;;;;;42.27;21.85;;;;;;;3.65;93.04;99244.53;1715116;81;21176;-77
2020/12/12 06:19:03;;;;;;;42.65;21.07;;;;;;;3.61;92.62;99243.14;1704413;81;21359;-77
2020/12/12 06:21:29;;;;;;;43.98;20.85;;;;;;;3.64;92.82;99244.67;1704357;82;21751;-77
2020/12/12 06:23:58;;;;;;;44.17;21.00;;;;;;;3.55;92.48;99245.80;1704143;82;22835;-77
2020/12/12 06:26:55;;;;;;;39.30;20.97;;;;;;;3.59;92.52;99243.27;1701052;82;21216;-78
2020/12/12 06:29:24;;;;;;;37.67;19.32;;;;;;;3.56;92.09;99251.86;1707683;81;21185;-78
2020/12/12 06:31:50;;;;;;;39.78;19.67;;;;;;;3.54;91.88;99250.69;1702314;82;21111;-77
2020/12/12 06:34:15;;;;;;;36.90;18.57;;;;;;;3.50;92.09;99259.73;1691496;81;21188;-78
2020/12/12 06:36:46;;;;;;;31.80;17.50;;;;;;;3.57;91.98;99255.64;1702980;82;21840;-76
2020/12/12 06:39:25;;;;;;;28.83;16.05;;;;;;;3.43;91.73;99250.77;1691449;82;21596;-77
2020/12/12 06:41:57;;;;;;;28.52;14.73;;;;;;;3.44;91.60;99247.22;1700061;82;22306;-78
2020/12/12 06:44:37;;;;;;;26.65;15.45;;;;;;;3.34;91.67;99251.56;1700062;82;21155;-77
2020/12/12 06:47:06;;;;;;;27.05;15.48;;;;;;;3.38;92.00;99254.27;1696204;81;21205;-76
2020/12/12 06:49:33;;;;;;;27.67;15.50;;;;;;;3.38;92.04;99250.35;1696347;81;21235;-78
2020/12/12 06:51:59;;;;;;;29.48;15.13;;;;;;;3.46;91.97;99247.08;1704460;82;22165;-78
2020/12/12 06:54:25;;;;;;;27.05;16.15;;;;;;;3.49;91.84;99246.81;1701281;82;21192;-77
2020/12/12 06:56:51;;;;;;;29.30;16.23;;;;;;;3.41;91.88;99251.39;1698346;82;21256;-79
2020/12/12 06:59:38;;;;;;;28.47;14.90;;;;;;;3.34;91.73;99242.43;1708012;82;20910;-78
2020/12/12 07:02:03;;;;;;;22.65;13.62;;;;;;;3.35;91.71;99250.12;1697639;82;21221;-77
2020/12/12 07:04:30;;;;;;;;;;;;;;;3.34;91.79;99254.17;1700820;82;21195;-76
2020/12/12 07:07:07;;;;;;;22.30;12.20;;;;;;;3.39;91.60;99250.70;1688408;82;20323;-82
2020/12/12 07:09:34;;;;;;;;;;;;;;;3.30;91.34;99242.37;1710083;82;21196;-77
2020/12/12 07:12:00;;;;;;;26.00;12.00;;;;;;;3.24;91.25;99254.95;1713049;82;20331;-77
2020/12/12 07:14:26;;;;;;;20.63;11.90;;;;;;;3.20;91.50;99243.16;1700788;82;20943;-77
2020/12/12 07:16:56;;;;;;;23.87;12.45;;;;;;;3.30;91.51;99250.19;1706182;81;28537;-77
2020/12/12 07:19:37;;;;;;;17.82;11.55;;;;;;;3.28;91.41;99252.09;1705518;82;22124;-75
2020/12/12 07:22:08;;;;;;;22.05;11.63;;;;;;;3.28;91.17;99257.30;1694105;82;21231;-78
2020/12/12 07:24:34;;;;;;;23.02;11.30;;;;;;;3.28;91.19;99250.78;1697324;82;21196;-76
2020/12/12 07:27:00;;;;;;;19.27;11.20;;;;;;;3.27;91.12;99258.28;1705925;82;21032;-80
2020/12/12 07:29:27;;;;;;;22.62;10.98;;;;;;;3.21;90.99;99260.44;1699291;82;21388;-76
2020/12/12 07:31:53;;;;;;;20.95;11.35;;;;;;;3.33;90.96;99263.80;1714539;82;21236;-78
2020/12/12 07:34:20;;;;;;;18.00;11.07;;;;;;;3.48;90.43;99267.34;1709405;82;21197;-77
2020/12/12 07:36:46;;;;;;;17.73;10.55;;;;;;;3.53;89.93;99273.83;1713667;82;21166;-79
2020/12/12 07:39:12;;;;;;;19.80;11.03;;;;;;;3.58;89.33;99271.63;1710521;82;22114;-76
2020/12/12 07:41:45;;;;;;;16.30;10.82;;;;;;;3.61;89.53;99274.95;1704031;82;21117;-77
2020/12/12 07:44:12;;;;;;;18.77;10.32;;;;;;;3.56;89.51;99274.87;1691766;82;21195;-76
2020/12/12 07:46:42;;;;;;;20.77;11.12;;;;;;;3.55;89.28;99275.81;1709766;81;21430;-78
2020/12/12 07:49:08;;;;;;;;;;;;;;;3.52;88.81;99281.30;1710810;82;21743;-77
2020/12/12 07:51:34;;;;;;;19.20;10.13;;;;;;;3.51;88.78;99282.28;1689704;82;20279;-76
2020/12/12 07:54:17;;;;;;;19.20;10.30;;;;;;;3.54;88.90;99279.86;1704425;82;21156;-78
2020/12/12 07:56:53;;;;;;;20.65;10.85;;;;;;;3.50;89.01;99282.41;1705668;82;21200;-77
2020/12/12 07:59:19;;;;;;;19.05;9.83;;;;;;;3.53;89.20;99284.75;1693324;82;21212;-80
2020/12/12 08:01:50;;;;;;;19.48;10.72;;;;;;;3.48;88.92;99285.15;1691041;82;21239;-76
2020/12/12 08:04:23;;;;;;;17.57;10.70;;;;;;;3.37;89.31;99288.68;1689601;82;22175;-78
2020/12/12 08:06:51;;;;;;;17.23;9.93;;;;;;;3.41;88.92;99286.63;1689997;82;21181;-78
2020/12/12 08:09:20;;;;;;;18.15;10.43;;;;;;;3.47;88.67;99287.41;1705211;81;21614;-76
2020/12/12 08:11:48;;;;;;;16.20;10.15;;;;;;;3.46;88.45;99289.66;1696003;82;21252;-78
2020/12/12 08:14:14;;;;;;;15.23;9.90;;;;;;;3.41;88.48;99285.32;1675909;82;21227;-78
2020/12/12 08:16:44;;;;;;;17.97;10.40;;;;;;;3.39;88.53;99289.86;1696642;82;23931;-76
2020/12/12 08:19:07;;;;;;;;;;;;;;;3.45;88.43;99292.39;1699353;81;21711;-79
2020/12/12 08:21:33;;;;;;;18.07;10.20;;;;;;;3.51;88.52;99290.11;1712501;81;20231;-79
2020/12/12 08:23:59;;;;;;;16.80;9.87;;;;;;;3.46;88.23;99290.96;1697717;81;21260;-78
2020/12/12 08:26:25;;;;;;;16.67;9.47;;;;;;;3.39;88.26;99291.98;1675923;82;27743;-76
2020/12/12 08:28:50;;;;;;;15.70;9.77;;;;;;;3.37;88.42;99291.29;1705730;82;21115;-80
2020/12/12 08:31:18;;;;;;;14.40;9.55;;;;;;;3.38;88.16;99288.19;1702740;82;27767;-83
2020/12/12 08:33:46;;;;;;;16.10;9.65;;;;;;;3.31;88.43;99284.44;1699051;82;21532;-76
2020/12/12 08:36:17;;;;;;;16.25;9.88;;;;;;;3.39;88.26;99288.55;1696057;82;21187;-76
2020/12/12 08:38:55;;;;;;;15.10;9.28;;;;;;;3.35;88.25;99291.06;1704074;82;21189;-76
2020/12/12 08:41:30;;;;;;;16.77;9.80;;;;;;;3.34;88.43;99296.77;1698120;82;21263;-78
2020/12/12 08:43:59;;;;;;;15.83;9.65;;;;;;;3.35;88.03;99291.06;1696970;82;21232;-76
2020/12/12 08:46:25;;;;;;;14.80;9.25;;;;;;;3.30;88.09;99289.34;1703042;82;21187;-76
2020/12/12 08:48:52;;;;;;;15.85;9.70;;;;;;;3.37;88.38;99299.13;1703628;82;21243;-75
2020/12/12 08:51:30;;;;;;;14.53;9.58;;;;;;;3.38;88.26;99299.45;1693817;82;22112;-76
2020/12/12 08:53:56;;;;;;;16.73;9.98;;;;;;;3.37;88.18;99298.27;1694025;81;21141;-75
2020/12/12 08:56:28;;;;;;;14.50;9.30;;;;;;;3.40;88.18;99294.94;1703212;82;21612;-75
2020/12/12 08:59:02;;;;;;;15.23;9.70;;;;;;;3.48;87.91;99295.59;1710173;82;21235;-74
2020/12/12 09:01:42;;;;;;;13.70;8.95;;;;;;;3.56;87.28;99286.61;1691726;81;21213;-76
2020/12/12 09:04:15;;;;;;;15.70;9.58;;;;;;;3.65;87.09;99293.29;1701938;82;21863;-75
2020/12/12 09:06:57;;;;;;;15.72;9.53;;;;;;;3.53;86.90;99285.57;1706869;82;21264;-76
2020/12/12 09:09:32;;;;;;;14.55;9.28;;;;;;;3.45;87.26;99291.94;1694137;82;21180;-76
2020/12/12 09:12:08;;;;;;;16.48;9.80;;;;;;;3.30;87.64;99286.23;1699338;82;21284;-76
2020/12/12 09:14:38;;;;;;;14.50;8.58;;;;;;;3.45;87.50;99276.73;1716507;81;21151;-76
2020/12/12 09:17:09;;;;;;;14.35;9.35;;;;;;;3.43;87.39;99279.97;1702231;81;21165;-77
2020/12/12 09:19:36;;;;;;;14.47;9.40;;;;;;;3.43;87.54;99283.39;1699348;82;22140;-75
2020/12/12 09:22:07;;;;;;;15.30;9.35;;;;;;;3.44;87.54;99278.53;1692179;81;21161;-76
2020/12/12 09:24:32;;;;;;;14.43;9.48;;;;;;;3.42;87.48;99280.45;1677488;82;21188;-76
2020/12/12 09:26:58;;;;;;;16.82;10.00;;;;;;;3.43;87.43;99276.87;1701622;82;21181;-76
2020/12/12 09:29:25;;;;;;;15.32;10.05;;;;;;;3.39;87.50;99280.23;1700759;81;21207;-77
2020/12/12 09:31:52;;;;;;;13.58;9.20;;;;;;;3.44;87.42;99279.84;1691550;82;21144;-78
2020/12/12 09:34:18;;;;;;;16.90;9.65;;;;;;;3.48;87.35;99274.71;1711134;81;21557;-75
2020/12/12 09:36:44;;;;;;;12.88;9.35;;;;;;;3.52;87.29;99270.04;1707721;82;21192;-76
2020/12/12 09:39:10;;;;;;;14.50;9.40;;;;;;;3.54;87.07;99268.96;1699403;82;21395;-76
2020/12/12 09:41:36;;;;;;;14.57;9.00;;;;;;;3.49;87.09;99265.90;1710038;81;25954;-76
2020/12/12 09:44:02;;;;;;;14.33;9.47;;;;;;;3.47;86.96;99267.02;1699629;81;21041;-76
2020/12/12 09:46:27;;;;;;;16.42;10.15;;;;;;;3.46;86.95;99272.69;1702789;82;26946;-76
2020/12/12 09:48:53;;;;;;;16.45;10.13;;;;;;;3.41;87.14;99273.58;1702713;82;25737;-76
2020/12/12 09:51:19;;;;;;;14.23;9.77;;;;;;;3.43;87.12;99270.34;1708305;82;21188;-76
2020/12/12 09:53:45;;;;;;;15.33;10.07;;;;;;;3.38;87.36;99274.66;1706924;81;26679;-75
2020/12/12 09:56:13;;;;;;;16.30;9.95;;;;;;;3.31;87.26;99267.48;1709611;81;22285;-78
2020/12/12 09:58:38;;;;;;;17.12;10.68;;;;;;;3.38;87.47;99279.88;1702689;81;21199;-75
2020/12/12 10:01:05;;;;;;;14.65;9.80;;;;;;;3.42;87.56;99258.27;1719060;81;25252;-76
2020/12/12 10:03:31;;;;;;;16.25;10.15;;;;;;;3.30;87.58;99265.85;1687225;81;22068;-75
2020/12/12 10:05:57;;;;;;;16.00;10.28;;;;;;;3.35;87.85;99271.49;1708204;82;21204;-75
2020/12/12 10:08:23;;;;;;;16.42;10.32;;;;;;;3.29;87.88;99272.83;1689835;82;21191;-76
2020/12/12 10:10:49;;;;;;;16.67;10.87;;;;;;;3.37;87.78;99265.65;1700067;82;27925;-75
2020/12/12 10:13:15;;;;;;;16.30;10.57;;;;;;;3.41;87.87;99263.95;1696453;82;27265;-76
2020/12/12 10:15:40;;;;;;;18.43;10.63;;;;;;;3.56;87.63;99263.61;1713510;82;21096;-76
2020/12/12 10:18:11;;;;;;;17.93;10.53;;;;;;;3.59;86.97;99259.42;1699644;82;23596;-77
2020/12/12 10:20:34;;;;;;;15.85;10.28;;;;;;;3.69;86.68;99252.91;1698049;82;21716;-75
2020/12/12 10:23:00;;;;;;;17.42;10.85;;;;;;;3.73;86.55;99255.13;1699019;81;21715;-75
2020/12/12 10:25:25;;;;;;;15.70;10.30;;;;;;;3.78;86.48;99250.31;1694873;81;25684;-75
2020/12/12 10:27:51;;;;;;;17.85;10.35;;;;;;;3.73;86.35;99249.09;1700778;82;22258;-75
2020/12/12 10:30:17;;;;;;;17.47;11.27;;;;;;;3.67;86.43;99245.70;1703673;82;23663;-75
2020/12/12 10:32:43;;;;;;;16.50;10.90;;;;;;;3.77;86.30;99245.23;1689468;82;22356;-76
2020/12/12 10:35:10;;;;;;;17.35;10.95;;;;;;;3.76;86.20;99246.20;1696616;82;28376;-77
2020/12/12 10:37:36;;;;;;;19.23;10.93;;;;;;;3.80;86.22;99248.05;1691144;82;21198;-76
2020/12/12 10:40:12;;;;;;;15.48;10.05;;;;;;;3.82;86.17;99245.64;1707511;82;21736;-77
2020/12/12 10:42:34;;;;;;;17.42;11.08;;;;;;;3.86;85.87;99244.91;1704449;82;21198;-76
2020/12/12 10:45:00;;;;;;;15.90;10.53;;;;;;;3.80;86.08;99247.56;1693849;82;21803;-76
2020/12/12 10:47:29;;;;;;;18.48;11.15;;;;;;;3.66;86.44;99242.73;1702102;82;28279;-76
2020/12/12 10:49:53;;;;;;;18.57;11.22;;;;;;;3.55;86.46;99243.19;1687567;82;21228;-77
2020/12/12 10:52:19;;;;;;;16.73;10.63;;;;;;;3.61;86.57;99251.46;1712033;82;22608;-76
2020/12/12 10:54:48;;;;;;;17.77;10.70;;;;;;;3.69;86.48;99251.61;1707021;81;26503;-75
2020/12/12 10:57:12;;;;;;;;;;;;;;;3.70;86.55;99256.70;1715240;82;21165;-77
2020/12/12 10:59:42;;;;;;;16.48;10.28;;;;;;;3.74;86.37;99252.88;1706344;82;20189;-75
2020/12/12 11:02:06;;;;;;;20.05;10.43;;;;;;;3.68;86.37;99253.86;1708515;81;21317;-76
2020/12/12 11:04:32;;;;;;;18.27;11.33;;;;;;;3.68;86.43;99261.23;1708805;81;21083;-75
2020/12/12 11:06:58;;;;;;;14.93;10.30;;;;;;;3.66;86.42;99257.09;1696925;82;21278;-78
2020/12/12 11:09:24;;;;;;;19.63;11.07;;;;;;;3.58;86.28;99254.66;1711742;82;21938;-76
2020/12/12 11:11:50;;;;;;;16.55;10.20;;;;;;;3.65;86.18;99260.20;1698027;81;26960;-77
2020/12/12 11:14:15;;;;;;;14.73;9.75;;;;;;;3.65;86.23;99258.89;1694630;82;25190;-76
2020/12/12 11:16:41;;;;;;;15.87;10.07;;;;;;;3.70;86.00;99257.19;1711566;82;21175;-75
2020/12/12 11:19:07;;;;;;;15.73;10.20;;;;;;;3.59;86.21;99256.81;1714859;81;24521;-76
2020/12/12 11:21:33;;;;;;;18.67;10.63;;;;;;;3.66;86.25;99253.18;1683758;81;25069;-76
2020/12/12 11:23:59;;;;;;;17.42;10.08;;;;;;;3.68;86.17;99253.86;1696513;81;21286;-76
2020/12/12 11:26:24;;;;;;;14.55;9.70;;;;;;;3.69;86.18;99239.86;1697698;82;27150;-75
2020/12/12 11:28:50;;;;;;;14.93;9.80;;;;;;;3.65;86.27;99238.47;1698174;82;22292;-77
2020/12/12 11:31:20;;;;;;;14.77;9.80;;;;;;;3.74;86.04;99248.95;1686951;82;21081;-76